sensor_id;sensor_type;location;lat;lon;timestamp;pressure;altitude;pressure_sealevel;temperature;humidity
32033;BME280;31720;52.638;9.216;2023-02-18T00:01:47;101628.81;;;7.06;100.00
32033;BME280;31720;52.638;9.216;2023-02-18T00:04:48;101625.34;;;7.04;100.00
32033;BME280;31720;52.638;9.216;2023-02-18T00:07:50;101625.41;;;7.02;100.00
32033;BME280;31720;52.638;9.216;2023-02-18T00:10:51;101626.94;;;7.11;100.00
32033;BME280;31720;52.638;9.216;2023-02-18T00:13:55;101620.81;;;7.12;100.00
32033;BME280;31720;52.638;9.216;2023-02-18T00:16:57;101628.66;;;7.12;100.00
32033;BME280;31720;52.638;9.216;2023-02-18T00:19:58;101641.72;;;7.12;100.00
32033;BME280;31720;52.638;9.216;2023-02-18T00:23:00;101644.31;;;7.14;100.00
32033;BME280;31720;52.638;9.216;2023-02-18T00:26:03;101644.19;;;7.18;100.00
32033;BME280;31720;52.638;9.216;2023-02-18T00:29:06;101634.53;;;7.20;100.00
32033;BME280;31720;52.638;9.216;2023-02-18T00:32:08;101635.44;;;7.19;100.00
32033;BME280;31720;52.638;9.216;2023-02-18T00:35:09;101640.84;;;7.13;100.00
32033;BME280;31720;52.638;9.216;2023-02-18T00:38:11;101633.69;;;7.20;100.00
32033;BME280;31720;52.638;9.216;2023-02-18T00:41:13;101630.19;;;7.21;100.00
32033;BME280;31720;52.638;9.216;2023-02-18T00:44:16;101632.88;;;7.18;100.00
32033;BME280;31720;52.638;9.216;2023-02-18T00:47:18;101639.88;;;7.16;100.00
32033;BME280;31720;52.638;9.216;2023-02-18T00:50:19;101638.84;;;7.23;100.00
32033;BME280;31720;52.638;9.216;2023-02-18T00:53:20;101639.59;;;7.26;100.00
32033;BME280;31720;52.638;9.216;2023-02-18T00:56:22;101646.75;;;7.20;100.00
32033;BME280;31720;52.638;9.216;2023-02-18T00:59:25;101641.53;;;7.20;100.00
32033;BME280;31720;52.638;9.216;2023-02-18T01:02:26;101646.72;;;7.21;100.00
32033;BME280;31720;52.638;9.216;2023-02-18T01:05:28;101644.78;;;7.29;100.00
32033;BME280;31720;52.638;9.216;2023-02-18T01:08:29;101643.00;;;7.31;100.00
32033;BME280;31720;52.638;9.216;2023-02-18T01:11:30;101640.50;;;7.25;100.00
32033;BME280;31720;52.638;9.216;2023-02-18T01:14:33;101639.44;;;7.34;100.00
32033;BME280;31720;52.638;9.216;2023-02-18T01:17:34;101650.63;;;7.39;100.00
32033;BME280;31720;52.638;9.216;2023-02-18T01:20:37;101644.78;;;7.29;100.00
32033;BME280;31720;52.638;9.216;2023-02-18T01:23:39;101643.91;;;7.29;100.00
32033;BME280;31720;52.638;9.216;2023-02-18T01:26:41;101626.66;;;7.22;100.00
32033;BME280;31720;52.638;9.216;2023-02-18T01:29:44;101633.56;;;7.24;100.00
32033;BME280;31720;52.638;9.216;2023-02-18T01:32:45;101629.25;;;7.23;100.00
32033;BME280;31720;52.638;9.216;2023-02-18T01:35:46;101638.06;;;7.19;100.00
32033;BME280;31720;52.638;9.216;2023-02-18T01:38:48;101624.03;;;7.22;100.00
32033;BME280;31720;52.638;9.216;2023-02-18T01:41:49;101624.03;;;7.22;100.00
32033;BME280;31720;52.638;9.216;2023-02-18T01:44:53;101616.91;;;7.28;100.00
32033;BME280;31720;52.638;9.216;2023-02-18T01:47:54;101616.00;;;7.29;100.00
32033;BME280;31720;52.638;9.216;2023-02-18T01:50:59;101604.63;;;7.32;100.00
32033;BME280;31720;52.638;9.216;2023-02-18T01:54:05;101602.81;;;7.34;100.00
32033;BME280;31720;52.638;9.216;2023-02-18T01:57:10;101619.41;;;7.33;100.00
32033;BME280;31720;52.638;9.216;2023-02-18T02:00:17;101591.56;;;7.32;100.00
32033;BME280;31720;52.638;9.216;2023-02-18T02:03:20;101591.63;;;7.29;100.00
32033;BME280;31720;52.638;9.216;2023-02-18T02:06:23;101591.50;;;7.33;100.00
32033;BME280;31720;52.638;9.216;2023-02-18T02:09:27;101594.94;;;7.35;100.00
32033;BME280;31720;52.638;9.216;2023-02-18T02:12:38;101600.03;;;7.40;100.00
32033;BME280;31720;52.638;9.216;2023-02-18T02:15:48;101589.69;;;7.37;100.00
32033;BME280;31720;52.638;9.216;2023-02-18T02:18:59;101586.16;;;7.38;100.00
32033;BME280;31720;52.638;9.216;2023-02-18T02:22:23;101582.69;;;7.37;100.00
32033;BME280;31720;52.638;9.216;2023-02-18T02:25:50;101574.00;;;7.35;100.00
32033;BME280;31720;52.638;9.216;2023-02-18T02:29:11;101569.78;;;7.31;100.00
32033;BME280;31720;52.638;9.216;2023-02-18T02:32:50;101570.53;;;7.36;100.00
32033;BME280;31720;52.638;9.216;2023-02-18T02:36:05;101568.88;;;7.32;100.00
32033;BME280;31720;52.638;9.216;2023-02-18T02:39:16;101562.69;;;7.36;100.00
32033;BME280;31720;52.638;9.216;2023-02-18T02:42:25;101555.94;;;7.28;100.00
32033;BME280;31720;52.638;9.216;2023-02-18T02:45:43;101555.16;;;7.24;100.00
32033;BME280;31720;52.638;9.216;2023-02-18T02:48:54;101560.50;;;7.20;100.00
32033;BME280;31720;52.638;9.216;2023-02-18T02:52:02;101550.03;;;7.20;100.00
32033;BME280;31720;52.638;9.216;2023-02-18T02:55:08;101549.13;;;7.22;100.00
32033;BME280;31720;52.638;9.216;2023-02-18T02:58:13;101561.31;;;7.22;100.00
32033;BME280;31720;52.638;9.216;2023-02-18T03:01:23;101555.06;;;7.27;100.00
32033;BME280;31720;52.638;9.216;2023-02-18T03:04:49;101543.88;;;7.22;100.00
32033;BME280;31720;52.638;9.216;2023-02-18T03:08:20;101525.72;;;7.16;100.00
32033;BME280;31720;52.638;9.216;2023-02-18T03:11:25;101523.25;;;7.11;100.00
32033;BME280;31720;52.638;9.216;2023-02-18T03:14:37;101523.25;;;7.11;100.00
32033;BME280;31720;52.638;9.216;2023-02-18T03:17:46;101522.44;;;7.09;100.00
32033;BME280;31720;52.638;9.216;2023-02-18T03:20:52;101505.91;;;7.09;100.00
32033;BME280;31720;52.638;9.216;2023-02-18T03:24:00;101504.16;;;7.09;100.00
32033;BME280;31720;52.638;9.216;2023-02-18T03:27:05;101500.69;;;7.07;100.00
32033;BME280;31720;52.638;9.216;2023-02-18T03:30:12;101500.75;;;7.06;100.00
32033;BME280;31720;52.638;9.216;2023-02-18T03:33:19;101499.72;;;7.11;100.00
32033;BME280;31720;52.638;9.216;2023-02-18T03:36:23;101495.47;;;7.07;100.00
32033;BME280;31720;52.638;9.216;2023-02-18T03:39:28;101497.97;;;7.12;100.00
32033;BME280;31720;52.638;9.216;2023-02-18T03:42:31;101496.13;;;7.16;100.00
32033;BME280;31720;52.638;9.216;2023-02-18T03:45:32;101500.44;;;7.17;100.00
32033;BME280;31720;52.638;9.216;2023-02-18T03:48:34;101500.63;;;7.10;100.00
32033;BME280;31720;52.638;9.216;2023-02-18T03:51:36;101504.09;;;7.11;100.00
32033;BME280;31720;52.638;9.216;2023-02-18T03:54:38;101496.44;;;7.03;100.00
32033;BME280;31720;52.638;9.216;2023-02-18T03:57:40;101497.31;;;7.04;100.00
32033;BME280;31720;52.638;9.216;2023-02-18T04:00:41;101493.84;;;7.03;100.00
32033;BME280;31720;52.638;9.216;2023-02-18T04:03:43;101493.03;;;7.01;100.00
32033;BME280;31720;52.638;9.216;2023-02-18T04:06:44;101489.50;;;7.02;100.00
32033;BME280;31720;52.638;9.216;2023-02-18T04:09:47;101492.91;;;7.06;100.00
32033;BME280;31720;52.638;9.216;2023-02-18T04:12:48;101496.31;;;7.09;100.00
32033;BME280;31720;52.638;9.216;2023-02-18T04:15:50;101486.09;;;7.00;100.00
32033;BME280;31720;52.638;9.216;2023-02-18T04:18:52;101479.13;;;6.99;100.00
32033;BME280;31720;52.638;9.216;2023-02-18T04:21:53;101469.63;;;6.97;100.00
32033;BME280;31720;52.638;9.216;2023-02-18T04:24:56;101455.84;;;6.92;100.00
32033;BME280;31720;52.638;9.216;2023-02-18T04:27:58;101444.59;;;6.88;100.00
32033;BME280;31720;52.638;9.216;2023-02-18T04:30:59;101450.88;;;6.82;100.00
32033;BME280;31720;52.638;9.216;2023-02-18T04:34:01;101450.25;;;6.73;100.00
32033;BME280;31720;52.638;9.216;2023-02-18T04:37:02;101456.34;;;6.72;100.00
32033;BME280;31720;52.638;9.216;2023-02-18T04:40:06;101446.81;;;6.71;100.00
32033;BME280;31720;52.638;9.216;2023-02-18T04:43:07;101448.63;;;6.69;100.00
32033;BME280;31720;52.638;9.216;2023-02-18T04:46:09;101440.91;;;6.64;100.00
32033;BME280;31720;52.638;9.216;2023-02-18T04:49:10;101433.06;;;6.64;100.00
32033;BME280;31720;52.638;9.216;2023-02-18T04:52:12;101434.81;;;6.64;100.00
32033;BME280;31720;52.638;9.216;2023-02-18T04:55:15;101428.81;;;6.60;100.00
32033;BME280;31720;52.638;9.216;2023-02-18T04:58:16;101426.09;;;6.65;100.00
32033;BME280;31720;52.638;9.216;2023-02-18T05:01:18;101422.63;;;6.64;100.00
32033;BME280;31720;52.638;9.216;2023-02-18T05:04:19;101413.16;;;6.58;100.00
32033;BME280;31720;52.638;9.216;2023-02-18T05:07:20;101414.91;;;6.58;100.00
32033;BME280;31720;52.638;9.216;2023-02-18T05:10:23;101408.84;;;6.57;100.00
32033;BME280;31720;52.638;9.216;2023-02-18T05:13:25;101397.53;;;6.57;100.00
32033;BME280;31720;52.638;9.216;2023-02-18T05:16:26;101396.63;;;6.58;100.00
32033;BME280;31720;52.638;9.216;2023-02-18T05:19:27;101395.72;;;6.60;100.00
32033;BME280;31720;52.638;9.216;2023-02-18T05:22:29;101390.41;;;6.64;100.00
32033;BME280;31720;52.638;9.216;2023-02-18T05:25:31;101377.31;;;6.65;100.00
32033;BME280;31720;52.638;9.216;2023-02-18T05:28:33;101375.69;;;6.61;100.00
32033;BME280;31720;52.638;9.216;2023-02-18T05:31:34;101375.56;;;6.66;100.00
32033;BME280;31720;52.638;9.216;2023-02-18T05:34:37;101369.53;;;6.64;100.00
32033;BME280;31720;52.638;9.216;2023-02-18T05:37:38;101358.31;;;6.60;100.00
32033;BME280;31720;52.638;9.216;2023-02-18T05:40:41;101347.97;;;6.55;100.00
32033;BME280;31720;52.638;9.216;2023-02-18T05:43:42;101337.47;;;6.57;100.00
32033;BME280;31720;52.638;9.216;2023-02-18T05:46:59;101313.06;;;6.58;100.00
32033;BME280;31720;52.638;9.216;2023-02-18T05:50:01;101310.38;;;6.61;100.00
32033;BME280;31720;52.638;9.216;2023-02-18T05:53:02;101294.66;;;6.63;100.00
32033;BME280;31720;52.638;9.216;2023-02-18T05:56:06;101299.03;;;6.64;100.00
32033;BME280;31720;52.638;9.216;2023-02-18T05:59:07;101280.75;;;6.62;100.00
32033;BME280;31720;52.638;9.216;2023-02-18T06:02:09;101281.63;;;6.63;100.00
32033;BME280;31720;52.638;9.216;2023-02-18T06:05:10;101279.06;;;6.61;100.00
32033;BME280;31720;52.638;9.216;2023-02-18T06:08:11;101256.47;;;6.58;100.00
32033;BME280;31720;52.638;9.216;2023-02-18T06:11:14;101249.41;;;6.62;100.00
32033;BME280;31720;52.638;9.216;2023-02-18T06:14:16;101238.00;;;6.66;100.00
32033;BME280;31720;52.638;9.216;2023-02-18T06:17:17;101237.91;;;6.69;100.00
32033;BME280;31720;52.638;9.216;2023-02-18T06:20:18;101239.63;;;6.70;100.00
32033;BME280;31720;52.638;9.216;2023-02-18T06:23:20;101239.53;;;6.73;100.00
32033;BME280;31720;52.638;9.216;2023-02-18T06:26:23;101222.03;;;6.75;100.00
32033;BME280;31720;52.638;9.216;2023-02-18T06:29:24;101216.69;;;6.80;100.00
32033;BME280;31720;52.638;9.216;2023-02-18T06:32:27;101217.66;;;6.77;100.00
32033;BME280;31720;52.638;9.216;2023-02-18T06:35:28;101216.66;;;6.81;100.00
32033;BME280;31720;52.638;9.216;2023-02-18T06:38:29;101207.91;;;6.82;100.00
32033;BME280;31720;52.638;9.216;2023-02-18T06:41:32;101199.16;;;6.83;100.00
32033;BME280;31720;52.638;9.216;2023-02-18T06:44:34;101193.03;;;6.84;100.00
32033;BME280;31720;52.638;9.216;2023-02-18T06:47:35;101188.56;;;6.88;100.00
32033;BME280;31720;52.638;9.216;2023-02-18T06:50:37;101190.13;;;6.94;100.00
32033;BME280;31720;52.638;9.216;2023-02-18T06:53:38;101170.06;;;6.96;100.00
32033;BME280;31720;52.638;9.216;2023-02-18T06:56:41;101161.31;;;6.97;100.00
32033;BME280;31720;52.638;9.216;2023-02-18T06:59:42;101157.78;;;6.98;100.00
32033;BME280;31720;52.638;9.216;2023-02-18T07:02:44;101147.34;;;6.98;100.00
32033;BME280;31720;52.638;9.216;2023-02-18T07:05:45;101139.41;;;7.01;100.00
32033;BME280;31720;52.638;9.216;2023-02-18T07:08:46;101120.97;;;7.05;100.00
32033;BME280;31720;52.638;9.216;2023-02-18T07:11:49;101125.28;;;7.06;100.00
32033;BME280;31720;52.638;9.216;2023-02-18T07:14:50;101116.50;;;7.09;100.00
32033;BME280;31720;52.638;9.216;2023-02-18T07:17:52;101113.75;;;7.12;100.00
32033;BME280;31720;52.638;9.216;2023-02-18T07:20:54;101117.06;;;7.19;100.00
32033;BME280;31720;52.638;9.216;2023-02-18T07:23:55;101117.81;;;7.22;100.00
32033;BME280;31720;52.638;9.216;2023-02-18T07:26:58;101097.63;;;7.26;100.00
32033;BME280;31720;52.638;9.216;2023-02-18T07:29:59;101082.75;;;7.28;100.00
32033;BME280;31720;52.638;9.216;2023-02-18T07:33:00;101085.22;;;7.32;100.00
32033;BME280;31720;52.638;9.216;2023-02-18T07:36:02;101073.75;;;7.36;100.00
32033;BME280;31720;52.638;9.216;2023-02-18T07:39:04;101060.34;;;7.46;100.00
32033;BME280;31720;52.638;9.216;2023-02-18T07:42:06;101058.25;;;7.55;100.00
32033;BME280;31720;52.638;9.216;2023-02-18T07:45:08;101064.06;;;7.63;100.00
32033;BME280;31720;52.638;9.216;2023-02-18T07:48:10;101060.66;;;7.85;100.00
32033;BME280;31720;52.638;9.216;2023-02-18T07:51:12;101056.81;;;7.95;100.00
32033;BME280;31720;52.638;9.216;2023-02-18T07:54:13;101057.47;;;8.00;100.00
32033;BME280;31720;52.638;9.216;2023-02-18T07:57:16;101057.00;;;8.12;100.00
32033;BME280;31720;52.638;9.216;2023-02-18T08:00:17;101057.44;;;8.24;100.00
32033;BME280;31720;52.638;9.216;2023-02-18T08:03:20;101057.38;;;8.25;100.00
32033;BME280;31720;52.638;9.216;2023-02-18T08:06:25;101050.88;;;8.35;100.00
32033;BME280;31720;52.638;9.216;2023-02-18T08:09:28;101054.06;;;8.44;100.00
32033;BME280;31720;52.638;9.216;2023-02-18T08:12:30;101035.63;;;8.47;100.00
32033;BME280;31720;52.638;9.216;2023-02-18T08:15:31;101032.94;;;8.48;100.00
32033;BME280;31720;52.638;9.216;2023-02-18T08:18:33;101030.13;;;8.53;100.00
32033;BME280;31720;52.638;9.216;2023-02-18T08:21:34;101031.84;;;8.54;100.00
32033;BME280;31720;52.638;9.216;2023-02-18T08:24:35;101030.38;;;8.69;100.00
32033;BME280;31720;52.638;9.216;2023-02-18T08:27:38;101020.19;;;8.83;100.00
32033;BME280;31720;52.638;9.216;2023-02-18T08:30:43;101005.09;;;8.88;100.00
32033;BME280;31720;52.638;9.216;2023-02-18T08:33:45;100988.78;;;9.02;100.00
32033;BME280;31720;52.638;9.216;2023-02-18T08:36:47;100986.91;;;9.05;100.00
32033;BME280;31720;52.638;9.216;2023-02-18T08:39:48;100992.78;;;9.10;100.00
32033;BME280;31720;52.638;9.216;2023-02-18T08:42:51;100991.41;;;9.22;100.00
32033;BME280;31720;52.638;9.216;2023-02-18T08:45:52;100988.59;;;9.27;100.00
32033;BME280;31720;52.638;9.216;2023-02-18T08:48:54;100987.50;;;9.31;100.00
32033;BME280;31720;52.638;9.216;2023-02-18T08:51:55;100991.59;;;9.38;100.00
32033;BME280;31720;52.638;9.216;2023-02-18T08:54:56;100976.56;;;9.42;100.00
32033;BME280;31720;52.638;9.216;2023-02-18T08:57:59;100976.41;;;9.45;100.00
32033;BME280;31720;52.638;9.216;2023-02-18T09:01:01;100985.16;;;9.45;100.00
32033;BME280;31720;52.638;9.216;2023-02-18T09:04:03;100964.84;;;9.49;100.00
32033;BME280;31720;52.638;9.216;2023-02-18T09:07:05;100966.59;;;9.50;100.00
32033;BME280;31720;52.638;9.216;2023-02-18T09:10:07;100959.47;;;9.52;100.00
32033;BME280;31720;52.638;9.216;2023-02-18T09:13:10;100970.63;;;9.57;100.00
32033;BME280;31720;52.638;9.216;2023-02-18T09:16:13;100960.06;;;9.58;100.00
32033;BME280;31720;52.638;9.216;2023-02-18T09:19:17;100964.22;;;9.62;100.00
32033;BME280;31720;52.638;9.216;2023-02-18T09:22:19;100963.38;;;9.62;100.00
32033;BME280;31720;52.638;9.216;2023-02-18T09:25:20;100973.88;;;9.62;100.00
32033;BME280;31720;52.638;9.216;2023-02-18T09:28:24;100990.41;;;9.64;100.00
32033;BME280;31720;52.638;9.216;2023-02-18T09:31:26;100970.28;;;9.64;100.00
32033;BME280;31720;52.638;9.216;2023-02-18T09:34:28;100963.03;;;9.70;100.00
32033;BME280;31720;52.638;9.216;2023-02-18T09:37:29;100956.72;;;9.74;100.00
32033;BME280;31720;52.638;9.216;2023-02-18T09:40:32;100961.06;;;9.75;100.00
32033;BME280;31720;52.638;9.216;2023-02-18T09:43:39;100954.88;;;9.76;100.00
32033;BME280;31720;52.638;9.216;2023-02-18T09:46:47;100952.97;;;9.79;100.00
32033;BME280;31720;52.638;9.216;2023-02-18T09:49:53;100950.63;;;9.73;100.00
32033;BME280;31720;52.638;9.216;2023-02-18T09:52:57;100952.97;;;9.79;100.00
32033;BME280;31720;52.638;9.216;2023-02-18T09:55:59;100955.50;;;9.81;100.00
32033;BME280;31720;52.638;9.216;2023-02-18T09:59:04;100954.66;;;9.80;100.00
32033;BME280;31720;52.638;9.216;2023-02-18T10:02:09;100951.34;;;9.77;100.00
32033;BME280;31720;52.638;9.216;2023-02-18T10:05:16;100942.38;;;9.81;100.00
32033;BME280;31720;52.638;9.216;2023-02-18T10:08:20;100954.75;;;9.79;100.00
32033;BME280;31720;52.638;9.216;2023-02-18T10:11:28;100943.09;;;9.84;100.00
32033;BME280;31720;52.638;9.216;2023-02-18T10:14:31;100945.66;;;9.86;100.00
32033;BME280;31720;52.638;9.216;2023-02-18T10:17:36;100943.94;;;9.85;100.00
32033;BME280;31720;52.638;9.216;2023-02-18T10:20:38;100951.19;;;9.80;100.00
32033;BME280;31720;52.638;9.216;2023-02-18T10:23:41;100947.00;;;9.76;100.00
32033;BME280;31720;52.638;9.216;2023-02-18T10:26:44;100944.75;;;9.87;100.00
32033;BME280;31720;52.638;9.216;2023-02-18T10:29:47;100925.88;;;9.79;100.00
32033;BME280;31720;52.638;9.216;2023-02-18T10:32:51;100926.94;;;9.75;100.00
32033;BME280;31720;52.638;9.216;2023-02-18T10:36:00;100928.63;;;9.76;100.00
32033;BME280;31720;52.638;9.216;2023-02-18T10:39:25;100937.44;;;9.75;100.00
32033;BME280;31720;52.638;9.216;2023-02-18T10:42:37;100937.66;;;9.70;100.00
32033;BME280;31720;52.638;9.216;2023-02-18T10:45:48;100948.22;;;9.69;100.00
32033;BME280;31720;52.638;9.216;2023-02-18T10:49:05;100940.13;;;9.73;100.00
32033;BME280;31720;52.638;9.216;2023-02-18T10:52:14;100940.97;;;9.74;100.00
32033;BME280;31720;52.638;9.216;2023-02-18T10:55:17;100935.72;;;9.74;100.00
32033;BME280;31720;52.638;9.216;2023-02-18T10:58:29;100936.44;;;9.77;100.00
32033;BME280;31720;52.638;9.216;2023-02-18T11:01:32;100945.94;;;9.80;100.00
32033;BME280;31720;52.638;9.216;2023-02-18T11:04:36;100924.22;;;9.76;100.00
32033;BME280;31720;52.638;9.216;2023-02-18T11:07:38;100942.34;;;9.82;100.00
32033;BME280;31720;52.638;9.216;2023-02-18T11:10:43;100931.97;;;9.79;100.00
32033;BME280;31720;52.638;9.216;2023-02-18T11:13:51;100934.72;;;9.76;100.00
32033;BME280;31720;52.638;9.216;2023-02-18T11:17:08;100925.03;;;9.78;100.00
32033;BME280;31720;52.638;9.216;2023-02-18T11:23:22;100940.19;;;9.72;100.00
32033;BME280;31720;52.638;9.216;2023-02-18T11:26:27;100931.47;;;9.71;100.00
32033;BME280;31720;52.638;9.216;2023-02-18T11:29:31;100939.72;;;9.63;100.00
32033;BME280;31720;52.638;9.216;2023-02-18T11:32:35;100929.06;;;9.66;100.00
32033;BME280;31720;52.638;9.216;2023-02-18T11:35:37;100926.72;;;9.60;100.00
32033;BME280;31720;52.638;9.216;2023-02-18T11:38:42;100917.88;;;9.63;100.00
32033;BME280;31720;52.638;9.216;2023-02-18T11:41:47;100913.53;;;9.62;100.00
32033;BME280;31720;52.638;9.216;2023-02-18T11:44:51;100920.00;;;9.55;100.00
32033;BME280;31720;52.638;9.216;2023-02-18T11:47:59;100913.91;;;9.54;100.00
32033;BME280;31720;52.638;9.216;2023-02-18T11:51:01;100920.22;;;9.50;100.00
32033;BME280;31720;52.638;9.216;2023-02-18T11:54:16;100937.53;;;9.54;100.00
32033;BME280;31720;52.638;9.216;2023-02-18T11:57:22;100946.06;;;9.58;100.00
32033;BME280;31720;52.638;9.216;2023-02-18T12:00:35;100922.66;;;9.53;100.00
32033;BME280;31720;52.638;9.216;2023-02-18T12:03:42;100936.84;;;9.49;100.00
32033;BME280;31720;52.638;9.216;2023-02-18T12:06:48;100930.84;;;9.47;100.00
32033;BME280;31720;52.638;9.216;2023-02-18T12:09:53;100938.91;;;9.43;100.00
32033;BME280;31720;52.638;9.216;2023-02-18T12:13:01;100938.78;;;9.46;100.00
32033;BME280;31720;52.638;9.216;2023-02-18T12:16:12;100937.00;;;9.46;100.00
32033;BME280;31720;52.638;9.216;2023-02-18T12:19:41;100939.00;;;9.41;100.00
32033;BME280;31720;52.638;9.216;2023-02-18T12:22:50;100936.38;;;9.41;100.00
32033;BME280;31720;52.638;9.216;2023-02-18T12:25:59;100946.91;;;9.39;100.00
32033;BME280;31720;52.638;9.216;2023-02-18T12:29:23;100948.69;;;9.39;100.00
32033;BME280;31720;52.638;9.216;2023-02-18T12:32:38;100962.81;;;9.36;100.00
32033;BME280;31720;52.638;9.216;2023-02-18T12:36:03;100964.50;;;9.37;100.00
32033;BME280;31720;52.638;9.216;2023-02-18T12:39:19;100953.00;;;9.40;100.00
32033;BME280;31720;52.638;9.216;2023-02-18T12:42:33;100946.16;;;9.37;100.00
32033;BME280;31720;52.638;9.216;2023-02-18T12:45:51;100950.66;;;9.34;100.00
32033;BME280;31720;52.638;9.216;2023-02-18T12:49:05;100967.13;;;9.37;100.00
32033;BME280;31720;52.638;9.216;2023-02-18T12:52:17;100960.09;;;9.38;100.00
32033;BME280;31720;52.638;9.216;2023-02-18T12:55:35;100949.63;;;9.38;100.00
32033;BME280;31720;52.638;9.216;2023-02-18T12:58:48;100946.28;;;9.34;100.00
32033;BME280;31720;52.638;9.216;2023-02-18T13:02:00;100946.34;;;9.33;100.00
32033;BME280;31720;52.638;9.216;2023-02-18T13:05:10;100942.03;;;9.32;100.00
32033;BME280;31720;52.638;9.216;2023-02-18T13:08:29;100967.97;;;9.38;100.00
32033;BME280;31720;52.638;9.216;2023-02-18T13:11:40;100975.84;;;9.38;100.00
32033;BME280;31720;52.638;9.216;2023-02-18T13:14:48;100962.09;;;9.33;100.00
32033;BME280;31720;52.638;9.216;2023-02-18T13:17:57;100973.50;;;9.32;100.00
32033;BME280;31720;52.638;9.216;2023-02-18T13:21:03;100988.97;;;9.38;100.00
32033;BME280;31720;52.638;9.216;2023-02-18T13:24:10;100973.88;;;9.43;100.00
32033;BME280;31720;52.638;9.216;2023-02-18T13:27:18;100983.38;;;9.46;100.00
32033;BME280;31720;52.638;9.216;2023-02-18T13:30:25;100981.44;;;9.49;100.00
32033;BME280;31720;52.638;9.216;2023-02-18T13:33:35;100998.00;;;9.51;100.00
32033;BME280;31720;52.638;9.216;2023-02-18T13:36:55;100983.91;;;9.54;100.00
32033;BME280;31720;52.638;9.216;2023-02-18T13:40:07;100994.50;;;9.51;100.00
32033;BME280;31720;52.638;9.216;2023-02-18T13:43:19;100995.16;;;9.56;100.00
32033;BME280;31720;52.638;9.216;2023-02-18T13:46:21;100983.94;;;9.52;100.00
32033;BME280;31720;52.638;9.216;2023-02-18T13:49:25;100988.94;;;9.58;100.00
32033;BME280;31720;52.638;9.216;2023-02-18T13:52:26;100991.59;;;9.57;100.00
32033;BME280;31720;52.638;9.216;2023-02-18T13:55:34;100987.16;;;9.59;100.00
32033;BME280;31720;52.638;9.216;2023-02-18T13:58:41;100987.22;;;9.57;100.00
32033;BME280;31720;52.638;9.216;2023-02-18T14:01:46;100999.69;;;9.52;100.00
32033;BME280;31720;52.638;9.216;2023-02-18T14:04:50;101001.47;;;9.52;100.00
32033;BME280;31720;52.638;9.216;2023-02-18T14:08:05;101005.06;;;9.49;100.00
32033;BME280;31720;52.638;9.216;2023-02-18T14:11:32;101011.88;;;9.53;100.00
32033;BME280;31720;52.638;9.216;2023-02-18T14:14:37;101006.41;;;9.58;100.00
32033;BME280;31720;52.638;9.216;2023-02-18T14:17:41;100999.34;;;9.60;100.00
32033;BME280;31720;52.638;9.216;2023-02-18T14:20:45;101011.09;;;9.51;100.00
32033;BME280;31720;52.638;9.216;2023-02-18T14:24:00;101008.56;;;9.50;100.00
32033;BME280;31720;52.638;9.216;2023-02-18T14:27:14;101019.91;;;9.50;100.00
32033;BME280;31720;52.638;9.216;2023-02-18T14:30:19;101026.25;;;9.45;100.00
32033;BME280;31720;52.638;9.216;2023-02-18T14:33:25;101036.81;;;9.43;100.00
32033;BME280;31720;52.638;9.216;2023-02-18T14:36:31;101035.69;;;9.49;100.00
32033;BME280;31720;52.638;9.216;2023-02-18T14:39:44;101029.59;;;9.48;100.00
32033;BME280;31720;52.638;9.216;2023-02-18T14:42:56;101046.84;;;9.54;100.00
32033;BME280;31720;52.638;9.216;2023-02-18T14:46:19;101037.91;;;9.58;100.00
32033;BME280;31720;52.638;9.216;2023-02-18T14:49:37;101032.59;;;9.59;100.00
32033;BME280;31720;52.638;9.216;2023-02-18T14:52:42;101044.69;;;9.63;100.00
32033;BME280;31720;52.638;9.216;2023-02-18T14:55:47;101053.59;;;9.59;100.00
32033;BME280;31720;52.638;9.216;2023-02-18T14:58:54;101063.81;;;9.65;100.00
32033;BME280;31720;52.638;9.216;2023-02-18T15:01:57;101055.00;;;9.66;100.00
32033;BME280;31720;52.638;9.216;2023-02-18T15:05:10;101065.31;;;9.71;100.00
32033;BME280;31720;52.638;9.216;2023-02-18T15:08:15;101044.31;;;9.71;100.00
32033;BME280;31720;52.638;9.216;2023-02-18T15:11:17;101052.25;;;9.70;100.00
32033;BME280;31720;52.638;9.216;2023-02-18T15:14:24;101057.72;;;9.65;100.00
32033;BME280;31720;52.638;9.216;2023-02-18T15:17:26;101053.59;;;9.59;100.00
32033;BME280;31720;52.638;9.216;2023-02-18T15:20:28;101058.66;;;9.64;100.00
32033;BME280;31720;52.638;9.216;2023-02-18T15:23:34;101068.13;;;9.66;100.00
32033;BME280;31720;52.638;9.216;2023-02-18T15:26:41;101062.47;;;9.76;100.00
32033;BME280;31720;52.638;9.216;2023-02-18T15:29:48;101079.78;;;9.80;100.00
32033;BME280;31720;52.638;9.216;2023-02-18T15:32:51;101080.81;;;9.77;100.00
32033;BME280;31720;52.638;9.216;2023-02-18T15:35:59;101090.44;;;9.77;100.00
32033;BME280;31720;52.638;9.216;2023-02-18T15:39:01;101082.81;;;9.71;100.00
32033;BME280;31720;52.638;9.216;2023-02-18T15:42:06;101083.69;;;9.71;100.00
32033;BME280;31720;52.638;9.216;2023-02-18T15:45:17;101092.47;;;9.70;100.00
32033;BME280;31720;52.638;9.216;2023-02-18T15:48:26;101092.28;;;9.75;100.00
32033;BME280;31720;52.638;9.216;2023-02-18T15:51:30;101091.31;;;9.77;100.00
32033;BME280;31720;52.638;9.216;2023-02-18T15:54:32;101093.31;;;9.71;100.00
32033;BME280;31720;52.638;9.216;2023-02-18T15:57:35;101104.09;;;9.64;100.00
32033;BME280;31720;52.638;9.216;2023-02-18T16:00:41;101111.84;;;9.68;100.00
32033;BME280;31720;52.638;9.216;2023-02-18T16:03:48;101095.22;;;9.67;100.00
32033;BME280;31720;52.638;9.216;2023-02-18T16:06:51;101101.06;;;9.74;100.00
32033;BME280;31720;52.638;9.216;2023-02-18T16:10:12;101110.66;;;9.75;100.00
32033;BME280;31720;52.638;9.216;2023-02-18T16:13:16;101112.50;;;9.73;100.00